sensor_id;sensor_type;location;lat;lon;timestamp;P1;durP1;ratioP1;P2;durP2;ratioP2
11313;SDS011;5712;48.858;9.206;2023-05-17T00:00:10;7.93;;;1.20;;
11313;SDS011;5712;48.858;9.206;2023-05-17T00:02:37;2.30;;;1.13;;
11313;SDS011;5712;48.858;9.206;2023-05-17T00:05:04;2.20;;;1.10;;
11313;SDS011;5712;48.858;9.206;2023-05-17T00:07:31;2.13;;;1.20;;
11313;SDS011;5712;48.858;9.206;2023-05-17T00:09:57;2.10;;;1.27;;
11313;SDS011;5712;48.858;9.206;2023-05-17T00:12:25;4.27;;;1.60;;
11313;SDS011;5712;48.858;9.206;2023-05-17T00:14:52;3.70;;;1.47;;
11313;SDS011;5712;48.858;9.206;2023-05-17T00:17:18;2.37;;;1.30;;
11313;SDS011;5712;48.858;9.206;2023-05-17T00:19:45;3.80;;;1.00;;
11313;SDS011;5712;48.858;9.206;2023-05-17T00:22:11;1.93;;;1.20;;
11313;SDS011;5712;48.858;9.206;2023-05-17T00:24:38;2.87;;;1.27;;
11313;SDS011;5712;48.858;9.206;2023-05-17T00:27:04;2.60;;;1.37;;
11313;SDS011;5712;48.858;9.206;2023-05-17T00:29:32;4.27;;;1.43;;
11313;SDS011;5712;48.858;9.206;2023-05-17T00:31:59;1.50;;;1.20;;
11313;SDS011;5712;48.858;9.206;2023-05-17T00:34:25;3.87;;;1.30;;
11313;SDS011;5712;48.858;9.206;2023-05-17T00:36:52;2.07;;;1.07;;
11313;SDS011;5712;48.858;9.206;2023-05-17T00:39:18;3.43;;;1.87;;
11313;SDS011;5712;48.858;9.206;2023-05-17T00:41:45;2.80;;;1.40;;
11313;SDS011;5712;48.858;9.206;2023-05-17T00:44:11;3.33;;;1.47;;
11313;SDS011;5712;48.858;9.206;2023-05-17T00:46:39;2.07;;;1.40;;
11313;SDS011;5712;48.858;9.206;2023-05-17T00:49:05;1.57;;;1.20;;
11313;SDS011;5712;48.858;9.206;2023-05-17T00:51:32;2.93;;;1.50;;
11313;SDS011;5712;48.858;9.206;2023-05-17T00:54:00;3.57;;;1.23;;
11313;SDS011;5712;48.858;9.206;2023-05-17T00:56:28;1.93;;;1.17;;
11313;SDS011;5712;48.858;9.206;2023-05-17T00:58:55;1.93;;;1.20;;
11313;SDS011;5712;48.858;9.206;2023-05-17T01:01:22;3.47;;;1.33;;
11313;SDS011;5712;48.858;9.206;2023-05-17T01:03:50;3.00;;;1.60;;
11313;SDS011;5712;48.858;9.206;2023-05-17T01:06:17;5.20;;;1.87;;
11313;SDS011;5712;48.858;9.206;2023-05-17T01:08:43;3.67;;;1.40;;
11313;SDS011;5712;48.858;9.206;2023-05-17T01:11:13;3.57;;;1.60;;
11313;SDS011;5712;48.858;9.206;2023-05-17T01:13:48;1.97;;;1.10;;
11313;SDS011;5712;48.858;9.206;2023-05-17T01:16:22;4.73;;;1.10;;
11313;SDS011;5712;48.858;9.206;2023-05-17T01:18:55;3.60;;;1.37;;
11313;SDS011;5712;48.858;9.206;2023-05-17T01:21:29;3.60;;;1.20;;
11313;SDS011;5712;48.858;9.206;2023-05-17T01:24:08;2.80;;;1.37;;
11313;SDS011;5712;48.858;9.206;2023-05-17T01:26:51;5.33;;;1.93;;
11313;SDS011;5712;48.858;9.206;2023-05-17T01:29:19;2.00;;;1.50;;
11313;SDS011;5712;48.858;9.206;2023-05-17T01:31:49;3.80;;;1.50;;
11313;SDS011;5712;48.858;9.206;2023-05-17T01:34:23;3.40;;;1.60;;
11313;SDS011;5712;48.858;9.206;2023-05-17T01:36:50;5.60;;;1.70;;
11313;SDS011;5712;48.858;9.206;2023-05-17T01:39:17;4.37;;;1.57;;
11313;SDS011;5712;48.858;9.206;2023-05-17T01:41:45;5.07;;;1.60;;
11313;SDS011;5712;48.858;9.206;2023-05-17T01:44:17;2.53;;;1.37;;
11313;SDS011;5712;48.858;9.206;2023-05-17T01:46:52;2.93;;;1.40;;
11313;SDS011;5712;48.858;9.206;2023-05-17T01:49:28;3.07;;;1.40;;
11313;SDS011;5712;48.858;9.206;2023-05-17T01:51:56;3.90;;;1.50;;
11313;SDS011;5712;48.858;9.206;2023-05-17T01:54:26;4.33;;;1.53;;
11313;SDS011;5712;48.858;9.206;2023-05-17T01:57:01;3.30;;;1.60;;
11313;SDS011;5712;48.858;9.206;2023-05-17T01:59:32;3.97;;;1.70;;
11313;SDS011;5712;48.858;9.206;2023-05-17T02:02:00;1.93;;;1.40;;
11313;SDS011;5712;48.858;9.206;2023-05-17T02:04:30;2.00;;;1.27;;
11313;SDS011;5712;48.858;9.206;2023-05-17T02:06:57;5.53;;;1.70;;
11313;SDS011;5712;48.858;9.206;2023-05-17T02:09:24;2.03;;;1.50;;
11313;SDS011;5712;48.858;9.206;2023-05-17T02:11:50;3.10;;;1.50;;
11313;SDS011;5712;48.858;9.206;2023-05-17T02:14:17;3.93;;;1.73;;
11313;SDS011;5712;48.858;9.206;2023-05-17T02:16:45;2.03;;;1.40;;
11313;SDS011;5712;48.858;9.206;2023-05-17T02:19:11;6.00;;;1.37;;
11313;SDS011;5712;48.858;9.206;2023-05-17T02:21:39;2.20;;;1.37;;
11313;SDS011;5712;48.858;9.206;2023-05-17T02:24:05;1.83;;;1.03;;
11313;SDS011;5712;48.858;9.206;2023-05-17T02:26:32;4.53;;;1.20;;
11313;SDS011;5712;48.858;9.206;2023-05-17T02:28:58;4.37;;;1.63;;
11313;SDS011;5712;48.858;9.206;2023-05-17T02:31:25;3.83;;;1.50;;
11313;SDS011;5712;48.858;9.206;2023-05-17T02:33:53;1.57;;;1.47;;
11313;SDS011;5712;48.858;9.206;2023-05-17T02:36:19;2.80;;;1.50;;
11313;SDS011;5712;48.858;9.206;2023-05-17T02:38:46;5.77;;;2.00;;
11313;SDS011;5712;48.858;9.206;2023-05-17T02:41:12;2.33;;;1.30;;
11313;SDS011;5712;48.858;9.206;2023-05-17T02:43:39;3.17;;;1.50;;
11313;SDS011;5712;48.858;9.206;2023-05-17T02:46:05;1.73;;;1.40;;
11313;SDS011;5712;48.858;9.206;2023-05-17T02:48:32;1.73;;;1.30;;
11313;SDS011;5712;48.858;9.206;2023-05-17T02:51:00;3.40;;;1.50;;
11313;SDS011;5712;48.858;9.206;2023-05-17T02:53:26;2.67;;;1.70;;
11313;SDS011;5712;48.858;9.206;2023-05-17T02:55:53;2.07;;;1.60;;
11313;SDS011;5712;48.858;9.206;2023-05-17T02:58:22;2.90;;;1.60;;
11313;SDS011;5712;48.858;9.206;2023-05-17T03:00:48;2.80;;;1.93;;
11313;SDS011;5712;48.858;9.206;2023-05-17T03:03:15;1.43;;;1.30;;
11313;SDS011;5712;48.858;9.206;2023-05-17T03:05:41;3.43;;;1.73;;
11313;SDS011;5712;48.858;9.206;2023-05-17T03:08:09;2.90;;;1.67;;
11313;SDS011;5712;48.858;9.206;2023-05-17T03:10:36;3.50;;;1.60;;
11313;SDS011;5712;48.858;9.206;2023-05-17T03:13:02;3.53;;;1.93;;
11313;SDS011;5712;48.858;9.206;2023-05-17T03:15:28;2.17;;;1.50;;
11313;SDS011;5712;48.858;9.206;2023-05-17T03:17:55;1.83;;;1.37;;
11313;SDS011;5712;48.858;9.206;2023-05-17T03:20:22;1.73;;;1.33;;
11313;SDS011;5712;48.858;9.206;2023-05-17T03:22:48;3.23;;;1.63;;
11313;SDS011;5712;48.858;9.206;2023-05-17T03:25:16;2.70;;;1.90;;
11313;SDS011;5712;48.858;9.206;2023-05-17T03:27:43;3.60;;;1.47;;
11313;SDS011;5712;48.858;9.206;2023-05-17T03:30:10;3.43;;;1.80;;
11313;SDS011;5712;48.858;9.206;2023-05-17T03:32:37;3.33;;;1.73;;
11313;SDS011;5712;48.858;9.206;2023-05-17T03:35:05;4.87;;;2.10;;
11313;SDS011;5712;48.858;9.206;2023-05-17T03:37:32;2.10;;;1.83;;
11313;SDS011;5712;48.858;9.206;2023-05-17T03:39:58;3.53;;;2.20;;
11313;SDS011;5712;48.858;9.206;2023-05-17T03:42:26;3.00;;;2.00;;
11313;SDS011;5712;48.858;9.206;2023-05-17T03:44:53;3.80;;;2.10;;
11313;SDS011;5712;48.858;9.206;2023-05-17T03:47:19;3.70;;;2.10;;
11313;SDS011;5712;48.858;9.206;2023-05-17T03:49:47;3.03;;;2.23;;
11313;SDS011;5712;48.858;9.206;2023-05-17T03:52:14;3.97;;;2.17;;
11313;SDS011;5712;48.858;9.206;2023-05-17T03:54:40;3.27;;;2.07;;
11313;SDS011;5712;48.858;9.206;2023-05-17T03:57:07;3.47;;;2.20;;
11313;SDS011;5712;48.858;9.206;2023-05-17T03:59:34;3.60;;;2.00;;
11313;SDS011;5712;48.858;9.206;2023-05-17T04:02:01;4.60;;;2.13;;
11313;SDS011;5712;48.858;9.206;2023-05-17T04:04:27;5.10;;;2.10;;
11313;SDS011;5712;48.858;9.206;2023-05-17T04:06:54;4.97;;;2.03;;
11313;SDS011;5712;48.858;9.206;2023-05-17T04:09:20;2.27;;;1.77;;
11313;SDS011;5712;48.858;9.206;2023-05-17T04:11:47;3.73;;;1.93;;
11313;SDS011;5712;48.858;9.206;2023-05-17T04:14:13;1.93;;;1.83;;
11313;SDS011;5712;48.858;9.206;2023-05-17T04:16:41;3.60;;;2.07;;
11313;SDS011;5712;48.858;9.206;2023-05-17T04:19:08;3.93;;;1.90;;
11313;SDS011;5712;48.858;9.206;2023-05-17T04:21:34;2.67;;;1.90;;
11313;SDS011;5712;48.858;9.206;2023-05-17T04:24:01;4.07;;;2.00;;
11313;SDS011;5712;48.858;9.206;2023-05-17T04:26:27;3.57;;;2.20;;
11313;SDS011;5712;48.858;9.206;2023-05-17T04:28:54;5.70;;;2.43;;
11313;SDS011;5712;48.858;9.206;2023-05-17T04:31:23;5.27;;;2.23;;
11313;SDS011;5712;48.858;9.206;2023-05-17T04:33:51;4.23;;;2.20;;
11313;SDS011;5712;48.858;9.206;2023-05-17T04:36:20;3.03;;;2.00;;
11313;SDS011;5712;48.858;9.206;2023-05-17T04:38:46;4.53;;;2.10;;
11313;SDS011;5712;48.858;9.206;2023-05-17T04:41:13;2.87;;;2.00;;
11313;SDS011;5712;48.858;9.206;2023-05-17T04:43:40;2.23;;;1.70;;
11313;SDS011;5712;48.858;9.206;2023-05-17T04:46:06;4.10;;;1.80;;
11313;SDS011;5712;48.858;9.206;2023-05-17T04:48:33;3.33;;;2.00;;
11313;SDS011;5712;48.858;9.206;2023-05-17T04:51:01;4.10;;;1.90;;
11313;SDS011;5712;48.858;9.206;2023-05-17T04:53:29;3.63;;;1.80;;
11313;SDS011;5712;48.858;9.206;2023-05-17T04:55:56;3.87;;;1.93;;
11313;SDS011;5712;48.858;9.206;2023-05-17T04:58:22;3.33;;;2.10;;
11313;SDS011;5712;48.858;9.206;2023-05-17T05:00:49;3.70;;;1.97;;
11313;SDS011;5712;48.858;9.206;2023-05-17T05:03:17;4.10;;;1.97;;
11313;SDS011;5712;48.858;9.206;2023-05-17T05:05:45;3.27;;;1.73;;
11313;SDS011;5712;48.858;9.206;2023-05-17T05:08:13;4.27;;;2.00;;
11313;SDS011;5712;48.858;9.206;2023-05-17T05:10:43;4.10;;;1.90;;
11313;SDS011;5712;48.858;9.206;2023-05-17T05:13:09;3.83;;;2.00;;
11313;SDS011;5712;48.858;9.206;2023-05-17T05:15:36;3.03;;;2.00;;
11313;SDS011;5712;48.858;9.206;2023-05-17T05:18:02;4.83;;;2.27;;
11313;SDS011;5712;48.858;9.206;2023-05-17T05:20:30;4.50;;;1.90;;
11313;SDS011;5712;48.858;9.206;2023-05-17T05:22:56;3.17;;;2.00;;
11313;SDS011;5712;48.858;9.206;2023-05-17T05:25:26;3.40;;;2.00;;
11313;SDS011;5712;48.858;9.206;2023-05-17T05:27:52;4.00;;;1.93;;
11313;SDS011;5712;48.858;9.206;2023-05-17T05:30:19;5.70;;;2.37;;
11313;SDS011;5712;48.858;9.206;2023-05-17T05:32:47;5.67;;;2.00;;
11313;SDS011;5712;48.858;9.206;2023-05-17T05:35:14;4.13;;;2.00;;
11313;SDS011;5712;48.858;9.206;2023-05-17T05:37:40;9.03;;;2.23;;
11313;SDS011;5712;48.858;9.206;2023-05-17T05:40:07;2.27;;;1.70;;
11313;SDS011;5712;48.858;9.206;2023-05-17T05:42:36;4.70;;;1.80;;
11313;SDS011;5712;48.858;9.206;2023-05-17T05:45:03;3.37;;;1.70;;
11313;SDS011;5712;48.858;9.206;2023-05-17T05:47:31;3.73;;;2.07;;
11313;SDS011;5712;48.858;9.206;2023-05-17T05:49:57;4.30;;;1.90;;
11313;SDS011;5712;48.858;9.206;2023-05-17T05:52:24;3.10;;;2.37;;
11313;SDS011;5712;48.858;9.206;2023-05-17T05:54:50;3.53;;;1.83;;
11313;SDS011;5712;48.858;9.206;2023-05-17T05:57:17;4.50;;;2.23;;
11313;SDS011;5712;48.858;9.206;2023-05-17T05:59:44;2.97;;;1.90;;
11313;SDS011;5712;48.858;9.206;2023-05-17T06:02:11;6.40;;;2.13;;
11313;SDS011;5712;48.858;9.206;2023-05-17T06:04:37;4.20;;;1.63;;
11313;SDS011;5712;48.858;9.206;2023-05-17T06:07:04;2.20;;;1.73;;
11313;SDS011;5712;48.858;9.206;2023-05-17T06:09:30;2.90;;;1.90;;
11313;SDS011;5712;48.858;9.206;2023-05-17T06:11:57;4.20;;;1.80;;
11313;SDS011;5712;48.858;9.206;2023-05-17T06:14:25;4.70;;;2.07;;
11313;SDS011;5712;48.858;9.206;2023-05-17T06:16:52;3.53;;;2.00;;
11313;SDS011;5712;48.858;9.206;2023-05-17T06:19:19;3.83;;;1.90;;
11313;SDS011;5712;48.858;9.206;2023-05-17T06:21:45;2.50;;;1.90;;
11313;SDS011;5712;48.858;9.206;2023-05-17T06:24:12;6.13;;;2.50;;
11313;SDS011;5712;48.858;9.206;2023-05-17T06:26:38;6.17;;;2.20;;
11313;SDS011;5712;48.858;9.206;2023-05-17T06:29:08;6.50;;;2.20;;
11313;SDS011;5712;48.858;9.206;2023-05-17T06:31:35;5.07;;;2.20;;
11313;SDS011;5712;48.858;9.206;2023-05-17T06:34:03;4.03;;;1.90;;
11313;SDS011;5712;48.858;9.206;2023-05-17T06:36:29;4.90;;;1.97;;
11313;SDS011;5712;48.858;9.206;2023-05-17T06:38:56;4.03;;;2.10;;
11313;SDS011;5712;48.858;9.206;2023-05-17T06:41:22;3.57;;;1.97;;
11313;SDS011;5712;48.858;9.206;2023-05-17T06:43:48;5.20;;;2.10;;
11313;SDS011;5712;48.858;9.206;2023-05-17T06:46:15;5.37;;;2.10;;
11313;SDS011;5712;48.858;9.206;2023-05-17T06:48:41;2.83;;;1.90;;
11313;SDS011;5712;48.858;9.206;2023-05-17T06:51:09;3.47;;;2.00;;
11313;SDS011;5712;48.858;9.206;2023-05-17T06:53:36;4.13;;;2.30;;
11313;SDS011;5712;48.858;9.206;2023-05-17T06:56:02;6.27;;;2.20;;
11313;SDS011;5712;48.858;9.206;2023-05-17T06:58:29;4.93;;;2.30;;
11313;SDS011;5712;48.858;9.206;2023-05-17T07:00:56;4.23;;;2.13;;
11313;SDS011;5712;48.858;9.206;2023-05-17T07:03:23;4.53;;;2.13;;
11313;SDS011;5712;48.858;9.206;2023-05-17T07:05:49;5.37;;;2.10;;
11313;SDS011;5712;48.858;9.206;2023-05-17T07:08:17;4.10;;;2.50;;
11313;SDS011;5712;48.858;9.206;2023-05-17T07:10:43;4.90;;;1.90;;
11313;SDS011;5712;48.858;9.206;2023-05-17T07:13:10;3.30;;;2.37;;
11313;SDS011;5712;48.858;9.206;2023-05-17T07:15:36;3.37;;;2.10;;
11313;SDS011;5712;48.858;9.206;2023-05-17T07:18:03;5.67;;;2.43;;
11313;SDS011;5712;48.858;9.206;2023-05-17T07:20:30;5.47;;;2.60;;
11313;SDS011;5712;48.858;9.206;2023-05-17T07:22:56;5.93;;;2.53;;
11313;SDS011;5712;48.858;9.206;2023-05-17T07:25:24;4.67;;;2.73;;
11313;SDS011;5712;48.858;9.206;2023-05-17T07:27:51;5.37;;;2.53;;
11313;SDS011;5712;48.858;9.206;2023-05-17T07:30:17;4.23;;;2.80;;
11313;SDS011;5712;48.858;9.206;2023-05-17T07:32:44;3.97;;;2.17;;
11313;SDS011;5712;48.858;9.206;2023-05-17T07:35:10;4.10;;;2.30;;
11313;SDS011;5712;48.858;9.206;2023-05-17T07:37:37;6.10;;;2.70;;
11313;SDS011;5712;48.858;9.206;2023-05-17T07:40:03;4.67;;;2.40;;
11313;SDS011;5712;48.858;9.206;2023-05-17T07:42:32;5.63;;;2.83;;
11313;SDS011;5712;48.858;9.206;2023-05-17T07:44:59;4.30;;;2.50;;
11313;SDS011;5712;48.858;9.206;2023-05-17T07:47:25;6.93;;;2.70;;
11313;SDS011;5712;48.858;9.206;2023-05-17T07:49:52;5.67;;;2.40;;
11313;SDS011;5712;48.858;9.206;2023-05-17T07:52:18;4.43;;;2.70;;
11313;SDS011;5712;48.858;9.206;2023-05-17T07:54:45;6.10;;;2.57;;
11313;SDS011;5712;48.858;9.206;2023-05-17T07:57:12;6.50;;;2.53;;
11313;SDS011;5712;48.858;9.206;2023-05-17T07:59:39;4.40;;;2.33;;
11313;SDS011;5712;48.858;9.206;2023-05-17T08:02:06;4.93;;;2.97;;
11313;SDS011;5712;48.858;9.206;2023-05-17T08:04:33;5.50;;;2.60;;
11313;SDS011;5712;48.858;9.206;2023-05-17T08:07:00;5.57;;;2.57;;
11313;SDS011;5712;48.858;9.206;2023-05-17T08:09:27;3.63;;;2.30;;
11313;SDS011;5712;48.858;9.206;2023-05-17T08:11:53;5.07;;;2.73;;
11313;SDS011;5712;48.858;9.206;2023-05-17T08:14:21;4.50;;;2.40;;
11313;SDS011;5712;48.858;9.206;2023-05-17T08:16:50;3.23;;;2.33;;
11313;SDS011;5712;48.858;9.206;2023-05-17T08:19:16;6.33;;;2.73;;
11313;SDS011;5712;48.858;9.206;2023-05-17T08:21:43;4.93;;;2.37;;
11313;SDS011;5712;48.858;9.206;2023-05-17T08:24:10;6.77;;;2.40;;
11313;SDS011;5712;48.858;9.206;2023-05-17T08:26:37;5.83;;;2.90;;
11313;SDS011;5712;48.858;9.206;2023-05-17T08:29:04;5.23;;;2.63;;
11313;SDS011;5712;48.858;9.206;2023-05-17T08:31:30;4.03;;;2.83;;
11313;SDS011;5712;48.858;9.206;2023-05-17T08:33:58;5.45;;;3.22;;
11313;SDS011;5712;48.858;9.206;2023-05-17T08:36:25;7.07;;;2.90;;
11313;SDS011;5712;48.858;9.206;2023-05-17T08:38:52;4.07;;;2.60;;
11313;SDS011;5712;48.858;9.206;2023-05-17T08:41:19;5.00;;;2.80;;
11313;SDS011;5712;48.858;9.206;2023-05-17T08:43:45;4.30;;;2.43;;
11313;SDS011;5712;48.858;9.206;2023-05-17T08:46:12;7.07;;;2.70;;
11313;SDS011;5712;48.858;9.206;2023-05-17T08:48:41;5.00;;;2.70;;
11313;SDS011;5712;48.858;9.206;2023-05-17T08:51:09;6.20;;;2.83;;
11313;SDS011;5712;48.858;9.206;2023-05-17T08:53:36;5.77;;;2.67;;
11313;SDS011;5712;48.858;9.206;2023-05-17T08:56:03;6.20;;;2.90;;
11313;SDS011;5712;48.858;9.206;2023-05-17T08:58:32;3.33;;;2.50;;
11313;SDS011;5712;48.858;9.206;2023-05-17T09:01:01;3.57;;;2.53;;
11313;SDS011;5712;48.858;9.206;2023-05-17T09:03:28;5.03;;;2.27;;
11313;SDS011;5712;48.858;9.206;2023-05-17T09:05:57;4.40;;;2.80;;
11313;SDS011;5712;48.858;9.206;2023-05-17T09:08:26;7.33;;;3.30;;
11313;SDS011;5712;48.858;9.206;2023-05-17T09:10:54;4.73;;;2.50;;
11313;SDS011;5712;48.858;9.206;2023-05-17T09:13:23;7.87;;;2.87;;
11313;SDS011;5712;48.858;9.206;2023-05-17T09:15:50;4.83;;;2.53;;
11313;SDS011;5712;48.858;9.206;2023-05-17T09:18:18;3.87;;;2.80;;
11313;SDS011;5712;48.858;9.206;2023-05-17T09:20:48;5.10;;;2.50;;
11313;SDS011;5712;48.858;9.206;2023-05-17T09:23:17;4.50;;;2.63;;
11313;SDS011;5712;48.858;9.206;2023-05-17T09:25:47;4.07;;;2.57;;
11313;SDS011;5712;48.858;9.206;2023-05-17T09:28:14;3.63;;;2.70;;
11313;SDS011;5712;48.858;9.206;2023-05-17T09:30:46;4.87;;;2.87;;
11313;SDS011;5712;48.858;9.206;2023-05-17T09:33:14;4.63;;;2.47;;
11313;SDS011;5712;48.858;9.206;2023-05-17T09:35:40;4.13;;;2.40;;
11313;SDS011;5712;48.858;9.206;2023-05-17T09:38:08;4.67;;;2.50;;
11313;SDS011;5712;48.858;9.206;2023-05-17T09:40:36;5.97;;;2.67;;
11313;SDS011;5712;48.858;9.206;2023-05-17T09:43:05;6.97;;;2.57;;
11313;SDS011;5712;48.858;9.206;2023-05-17T09:45:32;6.33;;;2.60;;
11313;SDS011;5712;48.858;9.206;2023-05-17T09:48:09;3.57;;;2.63;;
11313;SDS011;5712;48.858;9.206;2023-05-17T09:50:41;3.33;;;2.00;;
11313;SDS011;5712;48.858;9.206;2023-05-17T09:53:20;3.83;;;2.50;;
11313;SDS011;5712;48.858;9.206;2023-05-17T09:55:48;7.13;;;2.60;;
11313;SDS011;5712;48.858;9.206;2023-05-17T09:58:16;5.17;;;3.00;;
11313;SDS011;5712;48.858;9.206;2023-05-17T10:00:43;8.73;;;2.87;;
11313;SDS011;5712;48.858;9.206;2023-05-17T10:03:13;5.43;;;2.67;;
11313;SDS011;5712;48.858;9.206;2023-05-17T10:05:40;4.07;;;2.57;;
11313;SDS011;5712;48.858;9.206;2023-05-17T10:08:09;4.50;;;2.73;;
11313;SDS011;5712;48.858;9.206;2023-05-17T10:10:36;5.70;;;2.37;;
11313;SDS011;5712;48.858;9.206;2023-05-17T10:13:03;3.97;;;2.87;;
11313;SDS011;5712;48.858;9.206;2023-05-17T10:15:32;4.13;;;2.80;;
11313;SDS011;5712;48.858;9.206;2023-05-17T10:17:59;4.97;;;2.90;;
11313;SDS011;5712;48.858;9.206;2023-05-17T10:20:26;5.20;;;2.90;;
11313;SDS011;5712;48.858;9.206;2023-05-17T10:22:53;4.27;;;2.70;;
11313;SDS011;5712;48.858;9.206;2023-05-17T10:25:25;5.10;;;2.67;;
11313;SDS011;5712;48.858;9.206;2023-05-17T10:27:52;4.37;;;2.60;;
11313;SDS011;5712;48.858;9.206;2023-05-17T10:30:18;7.20;;;2.77;;
11313;SDS011;5712;48.858;9.206;2023-05-17T10:32:46;4.43;;;2.70;;
11313;SDS011;5712;48.858;9.206;2023-05-17T10:35:15;6.03;;;2.60;;
11313;SDS011;5712;48.858;9.206;2023-05-17T10:37:43;7.33;;;2.77;;
11313;SDS011;5712;48.858;9.206;2023-05-17T10:40:10;5.10;;;2.63;;
11313;SDS011;5712;48.858;9.206;2023-05-17T10:42:38;5.90;;;2.90;;
11313;SDS011;5712;48.858;9.206;2023-05-17T10:45:06;3.87;;;2.33;;
11313;SDS011;5712;48.858;9.206;2023-05-17T10:47:34;4.43;;;2.50;;
11313;SDS011;5712;48.858;9.206;2023-05-17T10:50:02;6.20;;;2.43;;
11313;SDS011;5712;48.858;9.206;2023-05-17T10:52:37;7.03;;;3.27;;
11313;SDS011;5712;48.858;9.206;2023-05-17T10:55:04;6.00;;;2.73;;
11313;SDS011;5712;48.858;9.206;2023-05-17T10:57:34;4.93;;;2.70;;
11313;SDS011;5712;48.858;9.206;2023-05-17T11:00:03;5.93;;;3.10;;
11313;SDS011;5712;48.858;9.206;2023-05-17T11:02:31;3.57;;;2.53;;
11313;SDS011;5712;48.858;9.206;2023-05-17T11:04:59;4.57;;;2.90;;
11313;SDS011;5712;48.858;9.206;2023-05-17T11:07:28;5.13;;;2.70;;
11313;SDS011;5712;48.858;9.206;2023-05-17T11:10:02;5.37;;;2.83;;
11313;SDS011;5712;48.858;9.206;2023-05-17T11:12:31;4.53;;;2.73;;
11313;SDS011;5712;48.858;9.206;2023-05-17T11:15:00;3.50;;;2.60;;
11313;SDS011;5712;48.858;9.206;2023-05-17T11:17:33;5.33;;;2.50;;
11313;SDS011;5712;48.858;9.206;2023-05-17T11:20:01;4.17;;;2.43;;
11313;SDS011;5712;48.858;9.206;2023-05-17T11:22:57;4.53;;;2.20;;
11313;SDS011;5712;48.858;9.206;2023-05-17T11:25:26;4.23;;;2.73;;
11313;SDS011;5712;48.858;9.206;2023-05-17T11:27:54;3.23;;;2.10;;
11313;SDS011;5712;48.858;9.206;2023-05-17T11:30:21;4.50;;;2.40;;
11313;SDS011;5712;48.858;9.206;2023-05-17T11:32:51;4.13;;;2.40;;
11313;SDS011;5712;48.858;9.206;2023-05-17T11:35:22;3.40;;;2.20;;
11313;SDS011;5712;48.858;9.206;2023-05-17T11:37:50;4.60;;;2.93;;
11313;SDS011;5712;48.858;9.206;2023-05-17T11:40:24;4.60;;;2.90;;
11313;SDS011;5712;48.858;9.206;2023-05-17T11:43:11;5.23;;;2.57;;
11313;SDS011;5712;48.858;9.206;2023-05-17T11:45:40;4.23;;;2.37;;
11313;SDS011;5712;48.858;9.206;2023-05-17T11:48:08;4.87;;;2.60;;
11313;SDS011;5712;48.858;9.206;2023-05-17T11:50:36;5.25;;;3.00;;
11313;SDS011;5712;48.858;9.206;2023-05-17T11:53:03;3.60;;;2.30;;
11313;SDS011;5712;48.858;9.206;2023-05-17T11:55:32;7.60;;;2.67;;
11313;SDS011;5712;48.858;9.206;2023-05-17T11:57:59;5.23;;;2.70;;
11313;SDS011;5712;48.858;9.206;2023-05-17T12:00:27;4.13;;;2.27;;
11313;SDS011;5712;48.858;9.206;2023-05-17T12:02:54;3.33;;;2.10;;
11313;SDS011;5712;48.858;9.206;2023-05-17T12:05:21;3.93;;;2.43;;
11313;SDS011;5712;48.858;9.206;2023-05-17T12:07:48;5.03;;;2.70;;
11313;SDS011;5712;48.858;9.206;2023-05-17T12:10:16;3.57;;;2.60;;
11313;SDS011;5712;48.858;9.206;2023-05-17T12:12:45;5.17;;;2.37;;
11313;SDS011;5712;48.858;9.206;2023-05-17T12:15:16;4.57;;;2.23;;
11313;SDS011;5712;48.858;9.206;2023-05-17T12:17:43;3.80;;;2.60;;
11313;SDS011;5712;48.858;9.206;2023-05-17T12:20:13;5.20;;;2.30;;
11313;SDS011;5712;48.858;9.206;2023-05-17T12:22:50;6.23;;;2.60;;
11313;SDS011;5712;48.858;9.206;2023-05-17T12:25:18;6.93;;;2.73;;
11313;SDS011;5712;48.858;9.206;2023-05-17T12:27:47;3.60;;;2.30;;
11313;SDS011;5712;48.858;9.206;2023-05-17T12:30:15;6.43;;;2.50;;
11313;SDS011;5712;48.858;9.206;2023-05-17T12:32:42;5.40;;;2.50;;
11313;SDS011;5712;48.858;9.206;2023-05-17T12:35:09;4.80;;;2.67;;
11313;SDS011;5712;48.858;9.206;2023-05-17T12:37:37;5.17;;;2.80;;
11313;SDS011;5712;48.858;9.206;2023-05-17T12:40:04;5.17;;;2.87;;
11313;SDS011;5712;48.858;9.206;2023-05-17T12:42:32;4.23;;;2.60;;
11313;SDS011;5712;48.858;9.206;2023-05-17T12:45:00;3.60;;;2.50;;
11313;SDS011;5712;48.858;9.206;2023-05-17T12:47:29;3.87;;;2.40;;
11313;SDS011;5712;48.858;9.206;2023-05-17T12:49:56;4.80;;;2.60;;
11313;SDS011;5712;48.858;9.206;2023-05-17T12:52:31;4.77;;;2.43;;
11313;SDS011;5712;48.858;9.206;2023-05-17T12:54:58;5.13;;;2.53;;
11313;SDS011;5712;48.858;9.206;2023-05-17T12:57:27;4.20;;;2.50;;
11313;SDS011;5712;48.858;9.206;2023-05-17T12:59:53;4.63;;;2.57;;
11313;SDS011;5712;48.858;9.206;2023-05-17T13:02:21;6.33;;;2.70;;
11313;SDS011;5712;48.858;9.206;2023-05-17T13:04:48;5.93;;;2.90;;
11313;SDS011;5712;48.858;9.206;2023-05-17T13:07:19;8.53;;;2.40;;
11313;SDS011;5712;48.858;9.206;2023-05-17T13:09:47;3.57;;;2.50;;
11313;SDS011;5712;48.858;9.206;2023-05-17T13:12:17;3.83;;;2.67;;
11313;SDS011;5712;48.858;9.206;2023-05-17T13:14:47;4.53;;;2.53;;
11313;SDS011;5712;48.858;9.206;2023-05-17T13:17:16;4.33;;;2.60;;
11313;SDS011;5712;48.858;9.206;2023-05-17T13:19:46;3.47;;;2.30;;
11313;SDS011;5712;48.858;9.206;2023-05-17T13:22:12;4.37;;;2.60;;
11313;SDS011;5712;48.858;9.206;2023-05-17T13:24:40;6.20;;;3.33;;
11313;SDS011;5712;48.858;9.206;2023-05-17T13:27:07;5.93;;;2.60;;
11313;SDS011;5712;48.858;9.206;2023-05-17T13:29:36;4.40;;;2.67;;
11313;SDS011;5712;48.858;9.206;2023-05-17T13:32:04;4.63;;;2.97;;
11313;SDS011;5712;48.858;9.206;2023-05-17T13:34:31;5.23;;;2.67;;
11313;SDS011;5712;48.858;9.206;2023-05-17T13:36:59;3.77;;;2.63;;
11313;SDS011;5712;48.858;9.206;2023-05-17T13:39:26;4.17;;;2.30;;
11313;SDS011;5712;48.858;9.206;2023-05-17T13:41:52;4.77;;;2.77;;
11313;SDS011;5712;48.858;9.206;2023-05-17T13:44:19;4.50;;;2.53;;
11313;SDS011;5712;48.858;9.206;2023-05-17T13:46:45;5.97;;;2.50;;
11313;SDS011;5712;48.858;9.206;2023-05-17T13:49:12;5.27;;;2.87;;
11313;SDS011;5712;48.858;9.206;2023-05-17T13:51:39;4.17;;;2.53;;
11313;SDS011;5712;48.858;9.206;2023-05-17T13:54:07;3.50;;;2.33;;
11313;SDS011;5712;48.858;9.206;2023-05-17T13:56:34;4.47;;;2.50;;
11313;SDS011;5712;48.858;9.206;2023-05-17T13:59:01;4.20;;;2.70;;
11313;SDS011;5712;48.858;9.206;2023-05-17T14:01:27;4.47;;;2.40;;
11313;SDS011;5712;48.858;9.206;2023-05-17T14:03:54;7.50;;;2.67;;
11313;SDS011;5712;48.858;9.206;2023-05-17T14:06:21;4.77;;;2.90;;
11313;SDS011;5712;48.858;9.206;2023-05-17T14:08:47;5.67;;;2.47;;
11313;SDS011;5712;48.858;9.206;2023-05-17T14:11:15;4.73;;;2.90;;
11313;SDS011;5712;48.858;9.206;2023-05-17T14:13:42;3.83;;;2.60;;
11313;SDS011;5712;48.858;9.206;2023-05-17T14:16:08;4.73;;;2.33;;
11313;SDS011;5712;48.858;9.206;2023-05-17T14:18:35;5.00;;;2.73;;
11313;SDS011;5712;48.858;9.206;2023-05-17T14:21:02;6.50;;;3.23;;
11313;SDS011;5712;48.858;9.206;2023-05-17T14:23:28;4.20;;;2.70;;
11313;SDS011;5712;48.858;9.206;2023-05-17T14:25:55;5.70;;;2.60;;
11313;SDS011;5712;48.858;9.206;2023-05-17T14:28:23;3.20;;;2.23;;
11313;SDS011;5712;48.858;9.206;2023-05-17T14:30:50;4.80;;;2.53;;
11313;SDS011;5712;48.858;9.206;2023-05-17T14:33:17;5.67;;;3.03;;
11313;SDS011;5712;48.858;9.206;2023-05-17T14:35:44;4.60;;;2.80;;
11313;SDS011;5712;48.858;9.206;2023-05-17T14:38:10;6.27;;;2.53;;
11313;SDS011;5712;48.858;9.206;2023-05-17T14:40:37;5.03;;;2.47;;
11313;SDS011;5712;48.858;9.206;2023-05-17T14:43:03;3.07;;;2.40;;
11313;SDS011;5712;48.858;9.206;2023-05-17T14:45:31;4.53;;;2.83;;
11313;SDS011;5712;48.858;9.206;2023-05-17T14:47:58;4.73;;;2.90;;
11313;SDS011;5712;48.858;9.206;2023-05-17T14:50:24;4.53;;;2.93;;
11313;SDS011;5712;48.858;9.206;2023-05-17T14:52:51;8.10;;;2.70;;
11313;SDS011;5712;48.858;9.206;2023-05-17T14:55:17;5.33;;;3.10;;
11313;SDS011;5712;48.858;9.206;2023-05-17T14:57:44;4.60;;;2.80;;
11313;SDS011;5712;48.858;9.206;2023-05-17T15:00:11;5.27;;;2.97;;
11313;SDS011;5712;48.858;9.206;2023-05-17T15:02:39;6.13;;;3.00;;